createdAt,value
2023-05-24T00:00:33.358Z,57.60
2023-05-24T00:01:34.917Z,57.91
2023-05-24T00:02:38.403Z,57.34
2023-05-24T00:03:40.106Z,57.54
2023-05-24T00:04:42.490Z,57.52
2023-05-24T00:05:46.829Z,57.35
2023-05-24T00:06:48.614Z,58.01
2023-05-24T00:07:50.875Z,58.07
2023-05-24T00:08:53.162Z,57.30
2023-05-24T00:09:54.812Z,56.99
2023-05-24T00:11:16.747Z,57.22
2023-05-24T00:12:18.350Z,57.18
2023-05-24T00:13:19.978Z,57.71
2023-05-24T00:14:21.870Z,58.00
2023-05-24T00:15:23.500Z,58.45
2023-05-24T00:16:25.129Z,58.42
2023-05-24T00:17:27.629Z,57.82
2023-05-24T00:18:31.334Z,57.75
2023-05-24T00:19:32.800Z,57.64
2023-05-24T00:20:34.397Z,57.94
2023-05-24T00:21:36.811Z,57.52
2023-05-24T00:22:39.089Z,57.53
2023-05-24T00:23:42.064Z,57.94
2023-05-24T00:24:43.546Z,57.74
2023-05-24T00:25:45.034Z,58.43
2023-05-24T00:26:46.582Z,58.54
2023-05-24T00:27:48.118Z,58.60
2023-05-24T00:28:49.640Z,58.54
2023-05-24T00:29:51.124Z,58.01
2023-05-24T00:30:52.698Z,57.77
2023-05-24T00:31:54.224Z,58.19
2023-05-24T00:32:55.915Z,58.12
2023-05-24T00:33:57.604Z,58.67
2023-05-24T00:34:59.274Z,58.92
2023-05-24T00:36:00.814Z,58.72
2023-05-24T00:37:02.391Z,58.84
2023-05-24T00:38:03.902Z,58.85
2023-05-24T00:39:05.942Z,58.95
2023-05-24T00:40:08.878Z,59.09
2023-05-24T00:41:11.570Z,58.90
2023-05-24T00:42:13.118Z,59.26
2023-05-24T00:43:14.790Z,59.85
2023-05-24T00:44:16.276Z,59.72
2023-05-24T00:45:17.886Z,59.59
2023-05-24T00:46:23.018Z,59.27
2023-05-24T00:47:24.617Z,59.39
2023-05-24T00:48:28.856Z,59.93
2023-05-24T00:49:31.448Z,59.72
2023-05-24T00:50:33.702Z,59.63
2023-05-24T00:51:36.684Z,59.93
2023-05-24T00:52:38.107Z,59.67
2023-05-24T00:53:41.455Z,59.01
2023-05-24T00:54:44.094Z,59.09
2023-05-24T00:55:45.717Z,58.97
2023-05-24T00:56:48.498Z,59.05
2023-05-24T00:57:52.428Z,58.92
2023-05-24T00:58:56.681Z,58.98
2023-05-24T00:59:59.660Z,59.48
2023-05-24T01:01:02.941Z,59.61
2023-05-24T01:02:04.777Z,59.85
2023-05-24T01:03:06.509Z,59.73
2023-05-24T01:04:08.301Z,59.90
2023-05-24T01:05:13.687Z,59.63
2023-05-24T01:06:16.293Z,59.19
2023-05-24T01:07:41.752Z,59.36
2023-05-24T01:09:25.921Z,59.65
2023-05-24T01:10:45.448Z,59.67
2023-05-24T01:12:11.695Z,59.47
2023-05-24T01:13:26.233Z,59.70
2023-05-24T01:14:38.890Z,60.11
2023-05-24T01:16:00.093Z,59.60
2023-05-24T01:17:06.756Z,59.78
2023-05-24T01:18:31.893Z,59.44
2023-05-24T01:19:43.237Z,59.56
2023-05-24T01:20:46.948Z,60.03
2023-05-24T01:22:09.242Z,59.63
2023-05-24T01:23:27.883Z,59.59
2023-05-24T01:24:53.892Z,59.47
2023-05-24T01:26:03.657Z,58.89
2023-05-24T01:27:12.221Z,59.65
2023-05-24T01:28:16.361Z,60.31
2023-05-24T01:29:18.200Z,60.44
2023-05-24T01:30:20.654Z,59.96
2023-05-24T01:31:23.244Z,60.19
2023-05-24T01:32:24.938Z,60.10
2023-05-24T01:33:27.158Z,60.17
2023-05-24T01:34:29.052Z,60.30
2023-05-24T01:35:30.609Z,60.79
2023-05-24T01:36:32.190Z,60.51
2023-05-24T01:37:33.724Z,60.44
2023-05-24T01:38:35.671Z,60.09
2023-05-24T01:39:37.378Z,59.74
2023-05-24T01:40:41.112Z,58.60
2023-05-24T01:41:59.657Z,59.58
2023-05-24T01:43:07.817Z,58.49
2023-05-24T01:44:59.231Z,58.77
2023-05-24T01:46:08.605Z,59.08
2023-05-24T01:47:41.411Z,60.12
2023-05-24T01:48:42.947Z,58.97
2023-05-24T01:49:50.682Z,59.01
2023-05-24T01:50:57.039Z,59.50
2023-05-24T01:52:16.120Z,59.95
2023-05-24T01:53:19.979Z,59.76
2023-05-24T01:54:24.756Z,58.55
2023-05-24T01:55:27.437Z,58.62
2023-05-24T01:56:29.307Z,58.28
2023-05-24T01:57:34.345Z,59.00
2023-05-24T01:58:37.635Z,59.46
2023-05-24T01:59:43.368Z,59.15
2023-05-24T02:00:45.695Z,59.75
2023-05-24T02:01:48.261Z,59.46
2023-05-24T02:02:50.439Z,58.36
2023-05-24T02:03:52.427Z,58.90
2023-05-24T02:04:54.417Z,58.21
2023-05-24T02:05:55.896Z,58.55
2023-05-24T02:06:57.690Z,59.31
2023-05-24T02:07:59.399Z,58.66
2023-05-24T02:09:01.378Z,58.35
2023-05-24T02:10:03.245Z,58.82
2023-05-24T02:11:04.780Z,58.60
2023-05-24T02:12:07.241Z,58.89
2023-05-24T02:13:09.205Z,59.15
2023-05-24T02:14:11.298Z,58.76
2023-05-24T02:15:14.819Z,58.41
2023-05-24T02:16:18.169Z,58.92
2023-05-24T02:17:19.853Z,59.02
2023-05-24T02:18:22.608Z,58.89
2023-05-24T02:19:24.920Z,59.24
2023-05-24T02:20:26.508Z,59.42
2023-05-24T02:21:28.850Z,59.08
2023-05-24T02:22:30.372Z,59.19
2023-05-24T02:23:31.899Z,59.24
2023-05-24T02:24:33.414Z,59.56
2023-05-24T02:25:34.901Z,59.79
2023-05-24T02:26:36.711Z,60.10
2023-05-24T02:27:38.219Z,60.57
2023-05-24T02:28:39.737Z,61.21
2023-05-24T02:29:41.974Z,60.87
2023-05-24T02:30:44.845Z,61.03
2023-05-24T02:31:46.965Z,60.29
2023-05-24T02:32:48.497Z,60.14
2023-05-24T02:33:50.017Z,60.03
2023-05-24T02:34:51.627Z,59.76
2023-05-24T02:35:53.269Z,59.90
2023-05-24T02:36:56.219Z,59.93
2023-05-24T02:37:58.760Z,59.85
2023-05-24T02:39:00.739Z,60.26
2023-05-24T02:40:02.345Z,60.81
2023-05-24T02:41:03.858Z,60.72
2023-05-24T02:42:06.229Z,60.93
2023-05-24T02:43:09.631Z,60.68
2023-05-24T02:44:11.769Z,60.45
2023-05-24T02:45:13.225Z,60.17
2023-05-24T02:46:15.277Z,60.54
2023-05-24T02:47:16.800Z,60.41
2023-05-24T02:48:18.258Z,59.95
2023-05-24T02:49:19.763Z,60.42
2023-05-24T02:50:21.253Z,60.58
2023-05-24T02:51:23.034Z,60.79
2023-05-24T02:52:24.934Z,60.98
2023-05-24T02:53:26.425Z,61.15
2023-05-24T02:54:27.949Z,60.75
2023-05-24T02:55:29.791Z,60.50
2023-05-24T02:56:31.724Z,60.39
2023-05-24T02:57:34.336Z,60.61
2023-05-24T02:58:40.539Z,60.85
2023-05-24T02:59:42.789Z,60.39
2023-05-24T03:00:44.384Z,59.99
2023-05-24T03:01:46.288Z,60.20
2023-05-24T03:02:48.132Z,60.30
2023-05-24T03:03:49.924Z,60.59
2023-05-24T03:04:51.449Z,60.38
2023-05-24T03:05:52.964Z,60.51
2023-05-24T03:06:54.788Z,61.03
2023-05-24T03:07:56.767Z,61.16
2023-05-24T03:08:59.229Z,61.19
2023-05-24T03:10:00.728Z,61.05
2023-05-24T03:11:02.220Z,61.04
2023-05-24T03:12:03.928Z,60.57
2023-05-24T03:13:05.635Z,61.60
2023-05-24T03:14:07.169Z,62.11
2023-05-24T03:15:09.484Z,61.80
2023-05-24T03:16:11.009Z,62.31
2023-05-24T03:17:12.533Z,62.02
2023-05-24T03:18:14.044Z,61.88
2023-05-24T03:19:17.338Z,61.49
2023-05-24T03:20:21.097Z,61.42
2023-05-24T03:21:23.851Z,61.69
2023-05-24T03:22:25.383Z,61.86
2023-05-24T03:23:26.943Z,61.38
2023-05-24T03:24:28.489Z,62.43
2023-05-24T03:25:29.932Z,62.21
2023-05-24T03:26:31.927Z,62.25
2023-05-24T03:27:33.418Z,61.87
2023-05-24T03:28:35.748Z,62.17
2023-05-24T03:29:37.481Z,62.69
2023-05-24T03:30:39.265Z,62.91
2023-05-24T03:31:40.883Z,63.50
2023-05-24T03:32:42.452Z,62.83
2023-05-24T03:33:44.095Z,62.28
2023-05-24T03:34:45.749Z,62.17
2023-05-24T03:35:47.558Z,61.94
2023-05-24T03:36:49.081Z,62.22
2023-05-24T03:37:50.871Z,62.19
2023-05-24T03:38:52.414Z,62.36
2023-05-24T03:39:54.477Z,62.44
2023-05-24T03:40:56.522Z,62.33
2023-05-24T03:41:58.030Z,62.27
2023-05-24T03:43:00.669Z,62.08
2023-05-24T03:44:02.348Z,62.25
2023-05-24T03:45:05.299Z,62.76
2023-05-24T03:46:07.132Z,62.24
2023-05-24T03:47:08.701Z,62.90
2023-05-24T03:48:10.428Z,62.99
2023-05-24T03:49:12.094Z,63.14
2023-05-24T03:50:14.381Z,63.60
2023-05-24T03:51:15.917Z,63.75
2023-05-24T03:52:17.390Z,63.87
2023-05-24T03:53:20.946Z,63.53
2023-05-24T03:54:24.429Z,63.18
2023-05-24T03:55:26.027Z,62.77
2023-05-24T03:56:27.646Z,63.24
2023-05-24T03:57:29.312Z,63.77
2023-05-24T03:58:31.110Z,63.19
2023-05-24T03:59:32.803Z,63.07
2023-05-24T04:00:34.426Z,62.92
2023-05-24T04:01:38.719Z,62.59
2023-05-24T04:02:40.327Z,62.91
2023-05-24T04:03:41.929Z,62.63
2023-05-24T04:04:43.529Z,62.27
2023-05-24T04:05:45.418Z,62.29
2023-05-24T04:06:47.947Z,62.39
2023-05-24T04:07:49.628Z,61.83
2023-05-24T04:08:52.732Z,62.28
2023-05-24T04:09:54.290Z,62.13
2023-05-24T04:10:55.974Z,61.44
2023-05-24T04:11:57.466Z,61.70
2023-05-24T04:13:00.706Z,61.36
2023-05-24T04:14:02.865Z,62.17
2023-05-24T04:15:04.777Z,62.53
2023-05-24T04:16:06.291Z,62.51
2023-05-24T04:17:08.489Z,61.70
2023-05-24T04:18:10.298Z,61.62
2023-05-24T04:19:11.936Z,61.49
2023-05-24T04:20:13.477Z,61.21
2023-05-24T04:21:15.938Z,60.45
2023-05-24T04:22:18.640Z,60.97
2023-05-24T04:23:20.127Z,60.98
2023-05-24T04:24:21.641Z,61.73
2023-05-24T04:25:23.749Z,61.18
2023-05-24T04:26:25.218Z,61.43
2023-05-24T04:27:27.037Z,62.13
2023-05-24T04:28:28.885Z,61.62
2023-05-24T04:29:33.300Z,60.09
2023-05-24T04:30:36.091Z,60.52
2023-05-24T04:31:37.717Z,60.49
2023-05-24T04:32:40.623Z,61.21
2023-05-24T04:33:42.380Z,61.02
2023-05-24T04:34:46.005Z,60.97
2023-05-24T04:35:47.817Z,60.99
2023-05-24T04:36:50.610Z,59.91
2023-05-24T04:37:52.586Z,60.33
2023-05-24T04:38:56.137Z,60.54
2023-05-24T04:39:57.850Z,60.87
2023-05-24T04:40:59.511Z,61.07
2023-05-24T04:42:00.983Z,60.93
2023-05-24T04:43:02.509Z,60.80
2023-05-24T04:44:04.260Z,60.34
2023-05-24T04:45:07.097Z,60.59
2023-05-24T04:46:09.444Z,60.55
2023-05-24T04:47:12.949Z,61.10
2023-05-24T04:48:14.403Z,60.58
2023-05-24T04:49:16.082Z,59.69
2023-05-24T04:50:17.998Z,58.89
2023-05-24T04:51:19.913Z,58.50
2023-05-24T04:52:21.503Z,57.21
2023-05-24T04:53:23.661Z,57.80
2023-05-24T04:54:25.154Z,59.10
2023-05-24T04:55:26.677Z,58.81
2023-05-24T04:56:28.584Z,59.23
2023-05-24T04:57:30.334Z,59.32
2023-05-24T04:58:31.913Z,59.09
2023-05-24T04:59:33.460Z,58.62
2023-05-24T05:00:35.041Z,59.15
2023-05-24T05:01:36.749Z,58.98
2023-05-24T05:02:38.421Z,57.56
2023-05-24T05:03:40.163Z,57.79
2023-05-24T05:04:41.798Z,57.53
2023-05-24T05:05:43.373Z,57.13
2023-05-24T05:06:44.986Z,57.50
2023-05-24T05:07:46.586Z,56.48
2023-05-24T05:08:50.662Z,56.68
2023-05-24T05:09:52.499Z,56.93
2023-05-24T05:10:54.122Z,56.25
2023-05-24T05:11:55.649Z,57.13
2023-05-24T05:12:57.447Z,55.97
2023-05-24T05:13:59.464Z,57.14
2023-05-24T05:15:01.023Z,55.61
2023-05-24T05:16:02.868Z,55.32
2023-05-24T05:17:04.567Z,56.37
2023-05-24T05:18:06.074Z,55.50
2023-05-24T05:19:07.798Z,54.31
2023-05-24T05:20:10.032Z,55.37
2023-05-24T05:21:11.692Z,55.55
2023-05-24T05:22:13.470Z,55.49
2023-05-24T05:23:17.057Z,55.19
2023-05-24T05:24:28.674Z,55.04
2023-05-24T05:25:42.823Z,55.85
2023-05-24T05:27:19.655Z,56.24
2023-05-24T05:28:30.187Z,55.67
2023-05-24T05:29:31.963Z,55.33
2023-05-24T05:30:33.527Z,55.79
2023-05-24T05:31:35.175Z,55.63
2023-05-24T05:32:38.206Z,55.58
2023-05-24T05:33:39.777Z,55.36
2023-05-24T05:34:41.689Z,54.22
2023-05-24T05:35:43.148Z,55.19
2023-05-24T05:36:44.618Z,55.48
2023-05-24T05:37:46.466Z,56.04
2023-05-24T05:38:47.925Z,55.49
2023-05-24T05:39:49.399Z,54.43
2023-05-24T05:40:50.866Z,55.52
2023-05-24T05:41:52.396Z,55.05
2023-05-24T05:42:53.990Z,55.03
2023-05-24T05:43:55.636Z,54.35
2023-05-24T05:44:57.465Z,55.06
2023-05-24T05:46:00.650Z,55.61
2023-05-24T05:47:03.893Z,56.31
2023-05-24T05:48:05.581Z,56.49
2023-05-24T05:49:07.492Z,56.39
2023-05-24T05:50:09.610Z,54.89
2023-05-24T05:51:11.314Z,55.61
2023-05-24T05:52:12.896Z,54.64
2023-05-24T05:53:15.974Z,54.92
2023-05-24T05:54:18.776Z,55.13
2023-05-24T05:55:20.457Z,55.10
2023-05-24T05:56:21.920Z,54.34
2023-05-24T05:57:24.442Z,54.04
2023-05-24T05:58:26.138Z,53.97
2023-05-24T05:59:27.620Z,54.51
2023-05-24T06:00:29.092Z,54.26
2023-05-24T06:01:30.561Z,54.26
2023-05-24T06:02:32.122Z,53.99
2023-05-24T06:03:33.833Z,53.42
2023-05-24T06:04:35.497Z,53.96
2023-05-24T06:05:37.021Z,53.12
2023-05-24T06:06:38.600Z,55.01
2023-05-24T06:07:40.116Z,54.66
2023-05-24T06:08:41.842Z,54.77
2023-05-24T06:09:43.337Z,54.05
2023-05-24T06:10:45.517Z,53.53
2023-05-24T06:11:47.175Z,53.44
2023-05-24T06:12:48.690Z,53.79
2023-05-24T06:13:50.171Z,54.27
2023-05-24T06:14:52.452Z,54.79
2023-05-24T06:15:54.681Z,55.61
2023-05-24T06:16:58.081Z,54.65
2023-05-24T06:18:02.288Z,54.54
2023-05-24T06:19:06.672Z,53.47
2023-05-24T06:20:15.564Z,53.88
2023-05-24T06:21:17.681Z,54.53
2023-05-24T06:22:19.857Z,55.16
2023-05-24T06:23:21.724Z,55.27
2023-05-24T06:24:23.417Z,55.37
2023-05-24T06:25:24.952Z,55.09
2023-05-24T06:26:27.127Z,55.93
2023-05-24T06:27:28.623Z,55.74
2023-05-24T06:28:30.133Z,54.78
2023-05-24T06:29:32.158Z,53.72
2023-05-24T06:30:33.822Z,54.34
2023-05-24T06:31:35.566Z,53.02
2023-05-24T06:32:37.324Z,53.55
2023-05-24T06:33:39.856Z,53.66
2023-05-24T06:34:44.850Z,54.71
2023-05-24T06:35:46.418Z,53.63
2023-05-24T06:36:48.579Z,54.37
2023-05-24T06:37:50.130Z,54.43
2023-05-24T06:38:51.665Z,55.41
2023-05-24T06:39:53.141Z,55.80
2023-05-24T06:40:54.659Z,54.63
2023-05-24T06:41:56.255Z,53.39
2023-05-24T06:42:58.737Z,53.61
2023-05-24T06:44:00.607Z,53.89
2023-05-24T06:45:02.304Z,53.75
2023-05-24T06:46:03.839Z,53.91
2023-05-24T06:47:06.093Z,53.00
2023-05-24T06:48:08.267Z,52.94
2023-05-24T06:49:10.276Z,52.89
2023-05-24T06:50:11.845Z,52.63
2023-05-24T06:51:13.331Z,52.77
2023-05-24T06:52:14.831Z,53.34
2023-05-24T06:53:16.329Z,52.86
2023-05-24T06:54:21.275Z,52.84
2023-05-24T06:55:23.050Z,52.77
2023-05-24T06:56:24.506Z,53.78
2023-05-24T06:57:27.088Z,53.81
2023-05-24T06:58:28.887Z,54.15
2023-05-24T06:59:30.769Z,53.76
2023-05-24T07:00:32.475Z,53.94
2023-05-24T07:01:34.070Z,54.18
2023-05-24T07:02:35.646Z,54.18
2023-05-24T07:03:37.347Z,53.70
2023-05-24T07:04:41.240Z,53.80
2023-05-24T07:05:42.912Z,53.51
2023-05-24T07:06:45.920Z,54.31
2023-05-24T07:07:48.077Z,54.84
2023-05-24T07:09:00.903Z,54.34
2023-05-24T07:10:02.598Z,53.25
2023-05-24T07:11:04.601Z,53.38
2023-05-24T07:12:09.406Z,52.84
2023-05-24T07:13:20.923Z,52.94
2023-05-24T07:14:26.443Z,52.52
2023-05-24T07:15:28.500Z,51.37
2023-05-24T07:16:31.719Z,51.83
2023-05-24T07:17:33.385Z,52.61
2023-05-24T07:18:35.013Z,51.93
2023-05-24T07:19:36.779Z,52.41
2023-05-24T07:20:38.647Z,51.86
2023-05-24T07:21:40.306Z,51.46
2023-05-24T07:22:41.833Z,52.11
2023-05-24T07:23:43.694Z,52.81
2023-05-24T07:24:45.308Z,53.58
2023-05-24T07:25:46.794Z,54.39
2023-05-24T07:26:49.156Z,53.99
2023-05-24T07:27:51.438Z,52.93
2023-05-24T07:28:53.385Z,54.07
2023-05-24T07:29:54.926Z,53.73
2023-05-24T07:30:59.218Z,53.36
2023-05-24T07:32:01.070Z,53.77
2023-05-24T07:33:03.128Z,53.36
2023-05-24T07:34:04.664Z,53.73
2023-05-24T07:35:06.754Z,52.94
2023-05-24T07:36:09.052Z,53.20
2023-05-24T07:37:10.551Z,52.93
2023-05-24T07:38:12.960Z,52.81
2023-05-24T07:39:16.047Z,53.05
2023-05-24T07:40:17.821Z,53.68
2023-05-24T07:41:19.647Z,53.89
2023-05-24T07:42:21.624Z,53.48
2023-05-24T07:43:23.495Z,53.31
2023-05-24T07:44:25.096Z,53.09
2023-05-24T07:45:26.776Z,53.25
2023-05-24T07:46:28.324Z,52.65
2023-05-24T07:47:29.976Z,53.42
2023-05-24T07:48:32.072Z,53.49
2023-05-24T07:49:33.639Z,53.13
2023-05-24T07:50:35.108Z,54.55
2023-05-24T07:51:36.912Z,54.62
2023-05-24T07:52:38.883Z,53.76
2023-05-24T07:53:40.587Z,54.05
2023-05-24T07:54:42.251Z,53.93
2023-05-24T07:55:44.748Z,54.12
2023-05-24T07:56:47.176Z,53.71
2023-05-24T07:57:48.759Z,54.26
2023-05-24T07:58:52.150Z,54.48
2023-05-24T07:59:53.894Z,55.27
2023-05-24T08:00:55.868Z,54.61
2023-05-24T08:02:04.022Z,55.26
2023-05-24T08:03:06.499Z,55.51
2023-05-24T08:04:09.890Z,55.22
2023-05-24T08:05:16.583Z,54.76
2023-05-24T08:06:19.158Z,53.29
2023-05-24T08:07:24.907Z,54.34
2023-05-24T08:08:26.489Z,55.12
2023-05-24T08:09:29.813Z,54.63
2023-05-24T08:10:31.339Z,54.35
2023-05-24T08:11:32.910Z,54.81
2023-05-24T08:12:34.406Z,55.27
2023-05-24T08:13:36.304Z,54.89
2023-05-24T08:14:37.887Z,55.64
2023-05-24T08:15:39.540Z,56.15
2023-05-24T08:16:41.211Z,56.14
2023-05-24T08:17:43.036Z,55.93
2023-05-24T08:18:44.898Z,55.26
2023-05-24T08:19:46.498Z,55.29
2023-05-24T08:20:48.062Z,55.60
2023-05-24T08:21:49.806Z,55.59
2023-05-24T08:22:52.093Z,55.82
2023-05-24T08:23:53.882Z,56.86
2023-05-24T08:24:55.530Z,56.20
2023-05-24T08:25:58.191Z,56.51
2023-05-24T08:26:59.749Z,56.34
2023-05-24T08:28:01.386Z,56.42
2023-05-24T08:29:04.990Z,57.01
2023-05-24T08:30:08.433Z,57.17
2023-05-24T08:31:10.226Z,56.04
2023-05-24T08:32:12.270Z,57.01
2023-05-24T08:33:14.222Z,56.16
2023-05-24T08:34:15.834Z,55.43
2023-05-24T08:35:21.580Z,55.60
2023-05-24T08:36:23.573Z,55.72
2023-05-24T08:37:25.267Z,56.13
2023-05-24T08:38:26.786Z,56.26
2023-05-24T08:39:28.273Z,55.64
2023-05-24T08:40:29.879Z,55.63
2023-05-24T08:41:37.341Z,55.40
2023-05-24T08:42:39.681Z,55.30
2023-05-24T08:43:43.496Z,54.34
2023-05-24T08:44:52.668Z,55.93
2023-05-24T08:45:59.084Z,55.52
2023-05-24T08:47:01.118Z,55.46
2023-05-24T08:48:04.042Z,56.12
2023-05-24T08:49:05.732Z,55.66
2023-05-24T08:50:08.752Z,55.75
2023-05-24T08:51:11.046Z,56.50
2023-05-24T08:52:12.807Z,56.74
2023-05-24T08:53:15.139Z,56.76
2023-05-24T08:54:16.822Z,57.02
2023-05-24T08:55:19.455Z,56.48
2023-05-24T08:56:22.280Z,56.25
2023-05-24T08:57:32.766Z,56.85
2023-05-24T08:58:35.112Z,57.50
2023-05-24T08:59:36.910Z,57.29
2023-05-24T09:00:38.529Z,57.24
2023-05-24T09:01:41.578Z,56.47
2023-05-24T09:02:44.760Z,56.54
2023-05-24T09:03:47.443Z,56.86
2023-05-24T09:04:50.665Z,57.17
2023-05-24T09:05:52.788Z,56.20
2023-05-24T09:06:56.520Z,55.39
2023-05-24T09:08:01.154Z,56.13
2023-05-24T09:09:03.863Z,56.97
2023-05-24T09:10:07.740Z,56.85
2023-05-24T09:11:09.701Z,56.05
2023-05-24T09:12:21.861Z,55.60
2023-05-24T09:13:31.827Z,54.69
2023-05-24T09:14:34.208Z,55.34
2023-05-24T09:15:36.381Z,55.52
2023-05-24T09:16:38.650Z,55.25
2023-05-24T09:17:52.260Z,54.97
2023-05-24T09:19:04.814Z,54.27
2023-05-24T09:20:09.090Z,54.02
2023-05-24T09:21:11.729Z,53.55
2023-05-24T09:22:14.518Z,54.31
2023-05-24T09:23:17.114Z,54.33
2023-05-24T09:24:18.651Z,54.81
2023-05-24T09:25:21.511Z,54.39
2023-05-24T09:26:24.849Z,53.76
2023-05-24T09:27:26.577Z,53.74
2023-05-24T09:28:32.942Z,53.63
2023-05-24T09:29:37.984Z,54.23
2023-05-24T09:30:39.544Z,55.16
2023-05-24T09:31:41.571Z,55.22
2023-05-24T09:32:57.894Z,54.50
2023-05-24T09:34:00.038Z,54.24
2023-05-24T09:35:02.201Z,54.11
2023-05-24T09:36:05.361Z,54.14
2023-05-24T09:37:13.447Z,54.57
2023-05-24T09:38:19.605Z,54.07
2023-05-24T09:39:21.478Z,53.00
2023-05-24T09:40:23.739Z,53.21
2023-05-24T09:41:25.549Z,52.89
2023-05-24T09:42:28.772Z,53.03
2023-05-24T09:43:33.231Z,53.31
2023-05-24T09:44:34.726Z,52.83
2023-05-24T09:45:47.210Z,52.46
2023-05-24T09:46:49.155Z,52.60
2023-05-24T09:47:53.011Z,52.04
2023-05-24T09:49:03.831Z,52.30
2023-05-24T09:50:11.710Z,52.65
2023-05-24T09:51:14.145Z,52.08
2023-05-24T09:52:16.540Z,52.51
2023-05-24T09:53:19.667Z,52.58
2023-05-24T09:54:21.203Z,53.27
2023-05-24T09:55:23.684Z,54.22
2023-05-24T09:56:26.719Z,53.62
2023-05-24T09:57:28.647Z,52.81
2023-05-24T09:58:33.814Z,52.52
2023-05-24T09:59:35.472Z,52.28
2023-05-24T10:00:41.388Z,52.87
2023-05-24T10:01:43.801Z,52.24
2023-05-24T10:02:53.435Z,52.04
2023-05-24T10:03:57.815Z,52.17
2023-05-24T10:05:02.849Z,51.71
2023-05-24T10:06:07.753Z,52.33
2023-05-24T10:07:10.331Z,52.10
2023-05-24T10:08:12.369Z,51.60
2023-05-24T10:09:14.528Z,49.98
2023-05-24T10:10:16.160Z,49.81
2023-05-24T10:11:18.969Z,50.70
2023-05-24T10:12:23.383Z,50.86
2023-05-24T10:13:26.775Z,50.13
2023-05-24T10:14:31.677Z,49.21
2023-05-24T10:15:33.165Z,50.52
2023-05-24T10:16:36.338Z,50.27
2023-05-24T10:17:38.197Z,48.65
2023-05-24T10:18:40.009Z,48.15
2023-05-24T10:19:42.119Z,48.11
2023-05-24T10:20:45.250Z,48.31
2023-05-24T10:21:49.476Z,48.37
2023-05-24T10:22:59.956Z,47.95
2023-05-24T10:24:03.826Z,46.99
2023-05-24T10:25:08.739Z,46.69
2023-05-24T10:26:12.650Z,46.93
2023-05-24T10:27:19.313Z,47.34
2023-05-24T10:28:23.656Z,47.10
2023-05-24T10:29:45.372Z,47.58
2023-05-24T10:31:04.758Z,45.08
2023-05-24T10:32:06.774Z,45.38
2023-05-24T10:33:09.529Z,44.67
2023-05-24T10:34:12.038Z,45.34
2023-05-24T10:35:15.123Z,44.17
2023-05-24T10:36:16.788Z,44.57
2023-05-24T10:37:18.378Z,44.34
2023-05-24T10:38:24.898Z,44.31
2023-05-24T10:39:26.936Z,45.69
2023-05-24T10:40:29.049Z,44.35
2023-05-24T10:41:39.785Z,44.07
2023-05-24T10:42:43.622Z,44.20
2023-05-24T10:44:00.955Z,45.31
2023-05-24T10:45:27.757Z,45.37
2023-05-24T10:46:29.475Z,43.81
2023-05-24T10:47:31.857Z,43.75
2023-05-24T10:48:36.323Z,43.13
2023-05-24T10:49:49.213Z,42.42
2023-05-24T10:50:51.193Z,42.78
2023-05-24T10:52:02.228Z,42.81
2023-05-24T10:53:19.214Z,42.91
2023-05-24T10:54:27.155Z,43.11
2023-05-24T10:55:28.729Z,43.15
2023-05-24T10:56:30.277Z,43.36
2023-05-24T10:57:33.147Z,43.43
2023-05-24T10:58:35.758Z,45.53
2023-05-24T10:59:39.424Z,45.12
2023-05-24T11:00:45.923Z,44.28
2023-05-24T11:01:55.541Z,43.57
2023-05-24T11:03:08.624Z,44.48
2023-05-24T11:04:12.670Z,44.64
2023-05-24T11:05:15.417Z,44.54
2023-05-24T11:06:18.005Z,45.54
2023-05-24T11:07:19.764Z,45.82
2023-05-24T11:08:26.306Z,45.86
2023-05-24T11:09:28.451Z,45.00
2023-05-24T11:10:31.331Z,44.71
2023-05-24T11:11:32.729Z,44.36
2023-05-24T11:12:38.673Z,44.12
2023-05-24T11:13:41.330Z,44.62
2023-05-24T11:14:51.308Z,44.25
2023-05-24T11:15:53.541Z,45.55
2023-05-24T11:16:56.126Z,44.97
2023-05-24T11:18:09.896Z,44.99
2023-05-24T11:19:35.917Z,42.63
2023-05-24T11:20:37.764Z,43.33
2023-05-24T11:21:41.330Z,42.17
2023-05-24T11:22:42.908Z,41.35
2023-05-24T11:23:44.468Z,39.44
2023-05-24T11:24:47.440Z,38.85
2023-05-24T11:25:49.389Z,39.89
2023-05-24T11:26:51.871Z,39.45
2023-05-24T11:27:53.796Z,38.61
2023-05-24T11:28:55.981Z,39.28
2023-05-24T11:29:59.059Z,39.34
2023-05-24T11:31:08.521Z,38.21
2023-05-24T11:32:15.741Z,38.90
2023-05-24T11:33:18.883Z,37.43
2023-05-24T11:34:21.909Z,37.56
2023-05-24T11:35:27.735Z,37.86
2023-05-24T11:36:30.053Z,39.61
2023-05-24T11:37:45.546Z,40.12
2023-05-24T11:38:49.905Z,39.08
2023-05-24T11:39:53.203Z,37.52
2023-05-24T11:40:54.767Z,37.12
2023-05-24T11:41:56.888Z,37.43
2023-05-24T11:42:58.651Z,37.86
2023-05-24T11:44:00.162Z,38.55
2023-05-24T11:45:02.081Z,37.77
2023-05-24T11:46:06.525Z,37.14
2023-05-24T11:47:08.764Z,35.91
2023-05-24T11:48:11.368Z,36.77
2023-05-24T11:49:17.142Z,37.86
2023-05-24T11:50:26.677Z,37.26
2023-05-24T11:51:31.565Z,36.11
2023-05-24T11:52:33.209Z,35.52
2023-05-24T11:53:35.355Z,35.80
2023-05-24T11:54:44.634Z,36.10
2023-05-24T11:55:59.290Z,34.77
2023-05-24T11:57:15.570Z,34.83
2023-05-24T11:58:20.580Z,33.56
2023-05-24T11:59:31.074Z,33.82
2023-05-24T12:00:39.617Z,34.17
2023-05-24T12:01:42.697Z,34.22
2023-05-24T12:02:46.955Z,34.48
2023-05-24T12:03:56.147Z,34.79
2023-05-24T12:05:12.969Z,34.80
2023-05-24T12:06:18.632Z,35.13
2023-05-24T12:07:30.394Z,35.49
2023-05-24T12:08:32.222Z,33.71
2023-05-24T12:09:33.871Z,33.53
2023-05-24T12:10:37.335Z,33.62
2023-05-24T12:11:43.036Z,34.72
2023-05-24T12:12:46.267Z,34.22
2023-05-24T12:13:48.164Z,35.13
2023-05-24T12:14:49.684Z,34.47
2023-05-24T12:15:56.615Z,32.94
2023-05-24T12:16:59.396Z,33.88
2023-05-24T12:18:01.149Z,34.08
2023-05-24T12:19:09.455Z,35.10
2023-05-24T12:20:14.304Z,35.76
2023-05-24T12:21:16.488Z,36.46
2023-05-24T12:22:17.973Z,35.85
2023-05-24T12:23:23.255Z,36.26
2023-05-24T12:24:26.346Z,37.20
2023-05-24T12:25:27.846Z,37.26
2023-05-24T12:26:29.696Z,37.74
2023-05-24T12:27:31.500Z,37.41
2023-05-24T12:28:39.116Z,35.09
2023-05-24T12:29:42.395Z,35.92
2023-05-24T12:30:45.192Z,36.36
2023-05-24T12:31:50.133Z,36.10
2023-05-24T12:32:54.349Z,35.07
2023-05-24T12:33:55.959Z,34.93
2023-05-24T12:34:57.496Z,34.63
2023-05-24T12:35:59.629Z,33.74
2023-05-24T12:37:02.519Z,34.23
2023-05-24T12:38:03.975Z,34.06
2023-05-24T12:39:32.160Z,34.11
2023-05-24T12:40:33.807Z,34.90
2023-05-24T12:41:35.626Z,34.91
2023-05-24T12:42:37.256Z,35.63
2023-05-24T12:43:39.553Z,35.26
2023-05-24T12:44:41.972Z,35.54
2023-05-24T12:45:43.905Z,35.78
2023-05-24T12:46:45.852Z,33.74
2023-05-24T12:47:48.185Z,33.93
2023-05-24T12:48:49.721Z,34.26
2023-05-24T12:49:51.235Z,33.61
2023-05-24T12:50:52.753Z,33.85
2023-05-24T12:51:56.003Z,33.81
2023-05-24T12:52:57.800Z,32.76
2023-05-24T12:53:59.292Z,33.51
2023-05-24T12:55:00.824Z,33.61
2023-05-24T12:56:02.527Z,33.56
2023-05-24T12:57:04.726Z,34.08
2023-05-24T12:58:08.190Z,34.54
2023-05-24T12:59:09.712Z,32.96
2023-05-24T13:00:11.857Z,33.36
2023-05-24T13:01:13.505Z,33.75
2023-05-24T13:02:15.088Z,32.85
2023-05-24T13:03:16.746Z,33.12
2023-05-24T13:04:21.146Z,34.38
2023-05-24T13:05:24.277Z,34.03
2023-05-24T13:06:25.858Z,35.18
2023-05-24T13:07:27.624Z,35.29
2023-05-24T13:08:30.177Z,35.97
2023-05-24T13:09:33.288Z,35.96
2023-05-24T13:10:35.428Z,36.87
2023-05-24T13:11:36.971Z,34.73
2023-05-24T13:12:39.252Z,35.12
2023-05-24T13:13:40.815Z,34.68
2023-05-24T13:14:42.534Z,34.68
2023-05-24T13:15:44.633Z,34.44
2023-05-24T13:16:46.766Z,35.07
2023-05-24T13:17:49.116Z,35.28
2023-05-24T13:18:50.760Z,35.28
2023-05-24T13:19:52.459Z,35.43
2023-05-24T13:20:54.298Z,36.29
2023-05-24T13:21:55.849Z,35.59
2023-05-24T13:22:57.342Z,35.27
2023-05-24T13:23:59.341Z,34.28
2023-05-24T13:25:02.654Z,33.42
2023-05-24T13:26:04.350Z,33.51
2023-05-24T13:27:07.150Z,34.05
2023-05-24T13:28:08.721Z,34.16
2023-05-24T13:30:15.091Z,34.22
2023-05-24T13:31:17.329Z,33.10
2023-05-24T13:32:18.873Z,32.80
2023-05-24T13:33:20.511Z,31.93
2023-05-24T13:34:24.672Z,32.77
2023-05-24T13:35:26.250Z,31.18
2023-05-24T13:36:27.817Z,31.08
2023-05-24T13:37:29.918Z,31.24
2023-05-24T13:38:34.682Z,32.10
2023-05-24T13:39:37.055Z,33.04